createdAt,value
2022-09-23T00:01:19.787Z,13.80
2022-09-23T00:03:47.208Z,13.80
2022-09-23T00:06:20.977Z,13.80
2022-09-23T00:08:49.789Z,13.80
2022-09-23T00:11:20.485Z,13.70
2022-09-23T00:13:50.687Z,13.70
2022-09-23T00:16:23.399Z,13.60
2022-09-23T00:18:50.891Z,13.60
2022-09-23T00:21:19.917Z,13.60
2022-09-23T00:23:47.199Z,13.60
2022-09-23T00:26:17.193Z,13.60
2022-09-23T00:28:44.072Z,13.50
2022-09-23T00:31:21.630Z,13.50
2022-09-23T00:33:56.811Z,13.40
2022-09-23T00:36:25.378Z,13.40
2022-09-23T00:38:53.609Z,13.30
2022-09-23T00:41:21.383Z,13.30
2022-09-23T00:43:51.272Z,13.20
2022-09-23T00:46:25.274Z,13.10
2022-09-23T00:49:01.544Z,13.10
2022-09-23T00:51:35.558Z,13.10
2022-09-23T00:54:03.470Z,13.00
2022-09-23T00:56:31.391Z,13.00
2022-09-23T00:58:59.583Z,13.00
2022-09-23T01:01:26.836Z,13.00
2022-09-23T01:03:54.806Z,13.00
2022-09-23T01:06:21.701Z,12.90
2022-09-23T01:08:49.121Z,12.90
2022-09-23T01:12:11.112Z,12.90
2022-09-23T01:14:53.502Z,12.80
2022-09-23T01:17:28.061Z,12.80
2022-09-23T01:20:16.270Z,12.70
2022-09-23T01:23:01.374Z,12.70
2022-09-23T01:25:54.651Z,12.60
2022-09-23T01:28:21.615Z,12.60
2022-09-23T01:31:19.146Z,12.60
2022-09-23T01:34:07.105Z,12.50
2022-09-23T01:37:25.036Z,12.50
2022-09-23T01:40:28.741Z,12.40
2022-09-23T01:43:11.468Z,12.40
2022-09-23T01:45:48.557Z,12.40
2022-09-23T01:48:42.644Z,12.30
2022-09-23T01:51:30.774Z,12.30
2022-09-23T01:54:04.871Z,12.20
2022-09-23T01:56:58.794Z,12.20
2022-09-23T01:59:38.665Z,12.20
2022-09-23T02:02:16.126Z,12.20
2022-09-23T02:04:56.973Z,12.10
2022-09-23T02:07:40.244Z,12.10
2022-09-23T02:10:25.098Z,12.00
2022-09-23T02:12:58.556Z,12.00
2022-09-23T02:15:36.550Z,12.00
2022-09-23T02:18:12.713Z,12.00
2022-09-23T02:20:40.219Z,11.90
2022-09-23T02:23:33.986Z,11.90
2022-09-23T02:26:32.887Z,11.90
2022-09-23T02:29:06.268Z,11.80
2022-09-23T02:31:48.678Z,11.80
2022-09-23T02:34:32.811Z,11.80
2022-09-23T02:37:43.988Z,11.80
2022-09-23T02:40:42.009Z,11.70
2022-09-23T02:43:41.421Z,11.70
2022-09-23T02:46:08.587Z,11.70
2022-09-23T02:48:44.590Z,11.70
2022-09-23T02:51:12.851Z,11.60
2022-09-23T02:53:40.374Z,11.60
2022-09-23T02:56:20.173Z,11.60
2022-09-23T02:58:49.880Z,11.50
2022-09-23T03:01:32.523Z,11.50
2022-09-23T03:04:40.393Z,11.50
2022-09-23T03:08:04.981Z,11.50
2022-09-23T03:10:49.846Z,11.50
2022-09-23T03:13:43.297Z,11.40
2022-09-23T03:16:39.966Z,11.40
2022-09-23T03:19:41.457Z,11.40
2022-09-23T03:22:22.894Z,11.40
2022-09-23T03:24:53.988Z,11.40
2022-09-23T03:27:26.855Z,11.40
2022-09-23T03:29:55.160Z,11.40
2022-09-23T03:32:24.980Z,11.30
2022-09-23T03:34:56.196Z,11.30
2022-09-23T03:37:32.312Z,11.30
2022-09-23T03:40:35.624Z,11.30
2022-09-23T03:43:04.672Z,11.30
2022-09-23T03:45:33.591Z,11.30
2022-09-23T03:48:01.006Z,11.20
2022-09-23T03:50:28.336Z,11.20
2022-09-23T03:52:55.730Z,11.20
2022-09-23T03:55:22.614Z,11.20
2022-09-23T03:57:49.584Z,11.20
2022-09-23T04:00:16.991Z,11.20
2022-09-23T04:02:44.238Z,11.20
2022-09-23T04:05:13.486Z,11.20
2022-09-23T04:07:41.260Z,11.10
2022-09-23T04:10:10.010Z,11.10
2022-09-23T04:12:37.287Z,11.10
2022-09-23T04:15:05.017Z,11.10
2022-09-23T04:17:31.918Z,11.10
2022-09-23T04:19:58.741Z,11.10
2022-09-23T04:22:25.749Z,11.10
2022-09-23T04:24:52.584Z,11.10
2022-09-23T04:27:19.604Z,11.20
2022-09-23T04:29:46.469Z,11.10
2022-09-23T04:32:13.380Z,11.10
2022-09-23T04:34:40.303Z,11.10
2022-09-23T04:37:07.164Z,11.10
2022-09-23T04:39:34.042Z,11.10
2022-09-23T04:42:00.972Z,11.00
2022-09-23T04:44:28.359Z,11.00
2022-09-23T04:46:55.317Z,11.10
2022-09-23T04:49:22.248Z,11.00
2022-09-23T04:51:49.036Z,11.10
2022-09-23T04:54:16.018Z,11.00
2022-09-23T04:56:43.126Z,11.00
2022-09-23T04:59:10.139Z,11.00
2022-09-23T05:01:38.443Z,11.00
2022-09-23T05:04:11.055Z,11.00
2022-09-23T05:06:38.330Z,11.00
2022-09-23T05:09:08.503Z,11.00
2022-09-23T05:11:35.771Z,11.00
2022-09-23T05:14:03.100Z,11.00
2022-09-23T05:16:30.148Z,11.00
2022-09-23T05:18:58.052Z,11.00
2022-09-23T05:21:28.565Z,11.00
2022-09-23T05:23:59.104Z,11.00
2022-09-23T05:26:29.291Z,11.00
2022-09-23T05:28:57.019Z,10.90
2022-09-23T05:31:27.609Z,11.00
2022-09-23T05:34:03.823Z,10.90
2022-09-23T05:36:37.951Z,10.90
2022-09-23T05:39:06.819Z,10.90
2022-09-23T05:41:34.151Z,10.90
2022-09-23T05:44:01.710Z,10.90
2022-09-23T05:46:30.879Z,11.00
2022-09-23T05:49:02.656Z,10.90
2022-09-23T05:51:31.807Z,10.90
2022-09-23T05:54:00.277Z,10.90
2022-09-23T05:56:28.707Z,11.00
2022-09-23T05:58:58.589Z,11.00
2022-09-23T06:01:32.260Z,11.00
2022-09-23T06:04:01.628Z,11.00
2022-09-23T06:06:41.485Z,11.00
2022-09-23T06:09:13.563Z,11.00
2022-09-23T06:11:41.726Z,11.00
2022-09-23T06:14:13.306Z,11.00
2022-09-23T06:16:40.330Z,11.00
2022-09-23T06:19:07.704Z,11.00
2022-09-23T06:21:37.940Z,11.00
2022-09-23T06:24:06.375Z,11.10
2022-09-23T06:26:35.158Z,11.10
2022-09-23T06:29:04.612Z,11.10
2022-09-23T06:31:32.152Z,11.10
2022-09-23T06:34:10.106Z,11.20
2022-09-23T06:36:43.763Z,11.20
2022-09-23T06:39:11.397Z,11.20
2022-09-23T06:41:39.158Z,11.20
2022-09-23T06:44:06.225Z,11.20
2022-09-23T06:46:33.421Z,11.20
2022-09-23T06:49:01.111Z,11.20
2022-09-23T06:51:27.946Z,11.20
2022-09-23T06:53:55.656Z,11.30
2022-09-23T06:56:23.715Z,11.30
2022-09-23T06:58:52.861Z,11.30
2022-09-23T07:01:20.157Z,11.30
2022-09-23T07:03:48.597Z,11.30
2022-09-23T07:06:17.770Z,11.30
2022-09-23T07:08:47.502Z,11.30
2022-09-23T07:11:15.748Z,11.30
2022-09-23T07:13:43.034Z,11.40
2022-09-23T07:16:11.533Z,11.40
2022-09-23T07:18:39.534Z,11.40
2022-09-23T07:21:16.229Z,11.40
2022-09-23T07:23:44.273Z,11.50
2022-09-23T07:26:12.055Z,11.50
2022-09-23T07:28:39.451Z,11.50
2022-09-23T07:31:13.842Z,11.60
2022-09-23T07:33:44.121Z,11.60
2022-09-23T07:36:14.708Z,11.60
2022-09-23T07:38:45.525Z,11.60
2022-09-23T07:41:19.086Z,11.70
2022-09-23T07:43:47.556Z,11.70
2022-09-23T07:46:17.561Z,11.70
2022-09-23T07:48:45.979Z,11.80
2022-09-23T07:51:18.704Z,11.80
2022-09-23T07:53:51.746Z,11.80
2022-09-23T07:56:20.181Z,11.90
2022-09-23T07:59:00.454Z,11.90
2022-09-23T08:01:39.905Z,11.90
2022-09-23T08:04:17.993Z,12.00
2022-09-23T08:07:01.030Z,12.00
2022-09-23T08:09:41.357Z,12.10
2022-09-23T08:12:15.996Z,12.10
2022-09-23T08:14:43.686Z,12.20
2022-09-23T08:17:13.177Z,12.20
2022-09-23T08:19:40.019Z,12.30
2022-09-23T08:22:06.858Z,12.30
2022-09-23T08:24:33.711Z,12.40
2022-09-23T08:27:00.824Z,12.40
2022-09-23T08:29:27.739Z,12.50
2022-09-23T08:31:54.763Z,12.60
2022-09-23T08:34:23.763Z,12.60
2022-09-23T08:36:52.411Z,12.70
2022-09-23T08:39:20.724Z,12.70
2022-09-23T08:41:53.842Z,12.80
2022-09-23T08:45:00.169Z,12.90
2022-09-23T08:47:43.756Z,13.00
2022-09-23T08:50:23.119Z,13.00
2022-09-23T08:53:01.896Z,13.10
2022-09-23T08:55:40.649Z,13.10
2022-09-23T08:58:25.555Z,13.20
2022-09-23T09:01:22.501Z,13.20
2022-09-23T09:04:23.500Z,13.30
2022-09-23T09:07:32.194Z,13.40
2022-09-23T09:10:03.529Z,13.40
2022-09-23T09:13:09.188Z,13.40
2022-09-23T09:16:11.505Z,13.50
2022-09-23T09:18:55.352Z,13.60
2022-09-23T09:21:32.452Z,13.60
2022-09-23T09:24:00.348Z,13.70
2022-09-23T09:26:34.251Z,13.80
2022-09-23T09:29:23.756Z,13.80
2022-09-23T09:31:57.648Z,13.90
2022-09-23T09:34:34.367Z,14.00
2022-09-23T09:37:24.851Z,14.10
2022-09-23T09:39:51.924Z,14.10
2022-09-23T09:42:30.978Z,14.20
2022-09-23T09:45:19.806Z,14.30
2022-09-23T09:48:13.615Z,14.30
2022-09-23T09:50:53.385Z,14.30
2022-09-23T09:53:29.379Z,14.40
2022-09-23T09:56:19.085Z,14.60
2022-09-23T09:58:53.554Z,14.60
2022-09-23T10:01:27.586Z,14.70
2022-09-23T10:03:59.535Z,14.70
2022-09-23T10:06:35.786Z,14.80
2022-09-23T10:09:05.623Z,14.90
2022-09-23T10:11:33.350Z,15.00
2022-09-23T10:14:02.792Z,15.10
2022-09-23T10:16:31.891Z,15.10
2022-09-23T10:19:04.422Z,15.20
2022-09-23T10:21:37.146Z,15.30
2022-09-23T10:24:07.115Z,15.40
2022-09-23T10:26:42.247Z,15.40
2022-09-23T10:29:39.298Z,15.50
2022-09-23T10:32:30.079Z,15.60
2022-09-23T10:35:13.360Z,15.80
2022-09-23T10:38:07.699Z,15.80
2022-09-23T10:41:02.135Z,15.90
2022-09-23T10:44:01.707Z,16.10
2022-09-23T10:46:53.457Z,16.20
2022-09-23T10:49:57.662Z,16.20
2022-09-23T10:52:49.263Z,16.30
2022-09-23T10:55:36.861Z,16.40
2022-09-23T10:58:43.701Z,16.50
2022-09-23T11:01:29.761Z,16.60
2022-09-23T11:04:34.966Z,16.60
2022-09-23T11:07:21.073Z,16.70
2022-09-23T11:10:29.067Z,16.80
2022-09-23T11:13:45.629Z,16.80
2022-09-23T11:16:27.138Z,16.80
2022-09-23T11:19:25.715Z,16.90
2022-09-23T11:22:37.446Z,16.90
2022-09-23T11:25:50.602Z,16.90
2022-09-23T11:29:03.538Z,17.00
2022-09-23T11:32:03.926Z,17.10
2022-09-23T11:34:52.609Z,17.10
2022-09-23T11:37:28.461Z,17.20
2022-09-23T11:40:15.649Z,17.30
2022-09-23T11:43:00.784Z,17.30
2022-09-23T11:45:32.998Z,17.40
2022-09-23T11:48:50.748Z,17.50
2022-09-23T11:52:22.029Z,17.50
2022-09-23T11:55:17.636Z,17.60
2022-09-23T11:58:01.138Z,17.80
2022-09-23T12:00:34.407Z,17.90
2022-09-23T12:03:42.914Z,17.90
2022-09-23T12:06:23.748Z,18.00
2022-09-23T12:08:57.580Z,18.20
2022-09-23T12:11:46.132Z,18.20
2022-09-23T12:14:14.458Z,18.30
2022-09-23T12:17:27.605Z,18.30
2022-09-23T12:20:31.274Z,18.40
2022-09-23T12:23:24.348Z,18.40
2022-09-23T12:26:02.151Z,18.50
2022-09-23T12:28:37.810Z,18.50
2022-09-23T12:31:11.705Z,18.50
2022-09-23T12:33:39.337Z,18.70
2022-09-23T12:36:12.260Z,18.70
2022-09-23T12:38:48.618Z,18.70
2022-09-23T12:41:41.455Z,18.80
2022-09-23T12:44:11.155Z,18.80
2022-09-23T12:46:39.025Z,18.90
2022-09-23T12:49:43.718Z,19.00
2022-09-23T12:52:16.459Z,19.00
2022-09-23T12:55:08.168Z,19.10
2022-09-23T12:57:34.954Z,19.10
2022-09-23T13:00:13.780Z,19.10
2022-09-23T13:02:48.034Z,19.10
2022-09-23T13:05:44.625Z,19.20
2022-09-23T13:08:22.585Z,19.20
2022-09-23T13:10:55.948Z,19.20
2022-09-23T13:13:33.083Z,19.20
2022-09-23T13:16:31.427Z,19.20
2022-09-23T13:19:04.590Z,19.20
2022-09-23T13:21:43.816Z,19.30
2022-09-23T13:24:13.634Z,19.50
2022-09-23T13:26:50.406Z,19.50
2022-09-23T13:29:33.330Z,19.40
2022-09-23T13:32:02.546Z,19.50
2022-09-23T13:34:33.861Z,19.40
2022-09-23T13:37:22.179Z,19.40
2022-09-23T13:39:50.260Z,19.50
2022-09-23T13:42:39.878Z,19.60
2022-09-23T13:45:18.689Z,19.60
2022-09-23T13:47:48.553Z,19.60
2022-09-23T13:50:36.996Z,19.60
2022-09-23T13:53:12.179Z,19.60
2022-09-23T13:55:40.025Z,19.60
2022-09-23T13:58:21.158Z,19.70
2022-09-23T14:00:49.354Z,19.60
2022-09-23T14:03:37.051Z,19.60
2022-09-23T14:06:10.191Z,19.60
2022-09-23T14:08:43.486Z,19.70
2022-09-23T14:11:20.590Z,19.50
2022-09-23T14:13:54.221Z,19.60
2022-09-23T14:16:25.478Z,19.60
2022-09-23T14:18:57.939Z,19.60
2022-09-23T14:21:39.665Z,19.60
2022-09-23T14:24:20.877Z,19.70
2022-09-23T14:26:53.462Z,19.60
2022-09-23T14:29:31.047Z,19.60
2022-09-23T14:32:06.934Z,19.70
2022-09-23T14:35:04.043Z,19.70
2022-09-23T14:37:57.441Z,19.60
2022-09-23T14:40:37.604Z,19.70
2022-09-23T14:43:28.330Z,19.70
2022-09-23T14:45:59.142Z,19.70
2022-09-23T14:48:35.802Z,19.70
2022-09-23T14:51:06.664Z,19.70
2022-09-23T14:53:40.984Z,19.60
2022-09-23T14:56:07.873Z,19.60
2022-09-23T14:58:52.961Z,19.70
2022-09-23T15:01:32.465Z,19.60
2022-09-23T15:04:22.861Z,19.60
2022-09-23T15:06:53.621Z,19.50
2022-09-23T15:09:36.327Z,19.60
2022-09-23T15:12:14.894Z,19.50
2022-09-23T15:14:51.539Z,19.50
2022-09-23T15:17:24.387Z,19.50
2022-09-23T15:19:57.928Z,19.50
2022-09-23T15:22:26.265Z,19.40
2022-09-23T15:24:56.432Z,19.40
2022-09-23T15:27:32.034Z,19.40
2022-09-23T15:30:15.658Z,19.40
2022-09-23T15:32:46.802Z,19.40
2022-09-23T15:35:27.941Z,19.40
2022-09-23T15:38:01.763Z,19.40
2022-09-23T15:40:35.278Z,19.20
2022-09-23T15:43:23.305Z,19.20
2022-09-23T15:45:57.300Z,19.10
2022-09-23T15:48:31.747Z,19.10
2022-09-23T15:51:06.908Z,19.10
2022-09-23T15:53:34.803Z,19.10
2022-09-23T15:56:02.141Z,19.10
2022-09-23T15:58:29.341Z,19.10
2022-09-23T16:00:57.419Z,19.10
2022-09-23T16:03:28.617Z,19.10
2022-09-23T16:06:00.634Z,19.10
2022-09-23T16:08:28.906Z,19.00
2022-09-23T16:10:56.630Z,19.00
2022-09-23T16:13:23.605Z,18.80
2022-09-23T16:15:50.639Z,18.70
2022-09-23T16:18:17.605Z,18.80
2022-09-23T16:20:47.709Z,18.70
2022-09-23T16:23:35.679Z,18.70
2022-09-23T16:26:24.324Z,18.70
2022-09-23T16:28:54.789Z,18.60
2022-09-23T16:31:25.255Z,18.60
2022-09-23T16:33:53.530Z,18.60
2022-09-23T16:36:26.970Z,18.50
2022-09-23T16:38:55.659Z,18.50
2022-09-23T16:41:24.437Z,18.40
2022-09-23T16:43:52.975Z,18.40
2022-09-23T16:46:21.006Z,18.40
2022-09-23T16:48:52.334Z,18.30
2022-09-23T16:51:27.253Z,18.30
2022-09-23T16:53:56.141Z,18.30
2022-09-23T16:56:29.139Z,18.30
2022-09-23T16:58:57.142Z,18.30
2022-09-23T17:01:48.206Z,18.30
2022-09-23T17:04:17.903Z,18.30
2022-09-23T17:06:52.876Z,18.20
2022-09-23T17:09:22.909Z,18.10
2022-09-23T17:12:01.462Z,18.00
2022-09-23T17:14:31.500Z,17.90
2022-09-23T17:16:59.076Z,17.90
2022-09-23T17:19:26.105Z,18.00
2022-09-23T17:21:53.907Z,17.80
2022-09-23T17:24:20.977Z,17.70
2022-09-23T17:26:52.155Z,17.80
2022-09-23T17:29:20.278Z,17.80
2022-09-23T17:31:47.216Z,17.80
2022-09-23T17:34:14.177Z,17.70
2022-09-23T17:36:41.087Z,17.60
2022-09-23T17:39:08.098Z,17.50
2022-09-23T17:41:35.050Z,17.50
2022-09-23T17:44:02.237Z,17.50
2022-09-23T17:46:30.249Z,17.50
2022-09-23T17:48:57.770Z,17.40
2022-09-23T17:51:25.628Z,17.30
2022-09-23T17:53:52.611Z,17.20
2022-09-23T17:56:30.087Z,17.10
2022-09-23T17:59:01.958Z,17.10
2022-09-23T18:01:29.554Z,17.10
2022-09-23T18:03:59.578Z,17.10
2022-09-23T18:06:31.765Z,17.00
2022-09-23T18:09:06.772Z,16.80
2022-09-23T18:11:37.758Z,16.80
2022-09-23T18:14:18.886Z,16.90
2022-09-23T18:16:50.921Z,16.80
2022-09-23T18:19:21.733Z,16.70
2022-09-23T18:21:56.076Z,16.70
2022-09-23T18:24:32.686Z,16.60
2022-09-23T18:27:01.278Z,16.50
2022-09-23T18:29:28.606Z,16.50
2022-09-23T18:31:55.739Z,16.50
2022-09-23T18:34:23.700Z,16.50
2022-09-23T18:36:50.751Z,16.50
2022-09-23T18:39:17.679Z,16.40
2022-09-23T18:41:44.739Z,16.30
2022-09-23T18:44:11.748Z,16.40
2022-09-23T18:46:38.811Z,16.40
2022-09-23T18:49:24.606Z,16.30
2022-09-23T18:51:57.566Z,16.30
2022-09-23T18:54:27.854Z,16.20
2022-09-23T18:56:56.128Z,16.10
2022-09-23T18:59:27.948Z,16.20
2022-09-23T19:01:56.207Z,16.20
2022-09-23T19:04:25.545Z,16.20
2022-09-23T19:06:53.948Z,16.30
2022-09-23T19:09:21.020Z,16.10
2022-09-23T19:11:52.231Z,16.10
2022-09-23T19:14:19.743Z,16.00
2022-09-23T19:16:49.028Z,16.00
2022-09-23T19:19:16.071Z,16.00
2022-09-23T19:21:43.287Z,16.00
2022-09-23T19:24:15.665Z,16.00
2022-09-23T19:26:43.740Z,16.00
2022-09-23T19:29:16.751Z,15.90
2022-09-23T19:31:44.042Z,15.90
2022-09-23T19:34:28.989Z,15.90
2022-09-23T19:36:59.949Z,15.80
2022-09-23T19:39:31.172Z,15.80
2022-09-23T19:41:58.987Z,15.80
2022-09-23T19:44:26.938Z,15.70
2022-09-23T19:46:56.877Z,15.70
2022-09-23T19:49:25.258Z,15.60
2022-09-23T19:51:55.523Z,15.60
2022-09-23T19:54:23.505Z,15.70
2022-09-23T19:56:50.787Z,15.60
2022-09-23T19:59:19.416Z,15.40
2022-09-23T20:01:49.919Z,15.40
2022-09-23T20:04:17.132Z,15.40
2022-09-23T20:06:45.990Z,15.40
2022-09-23T20:09:13.014Z,15.30
2022-09-23T20:11:40.731Z,15.30
2022-09-23T20:14:08.015Z,15.20
2022-09-23T20:16:37.191Z,15.20
2022-09-23T20:19:05.651Z,15.20
2022-09-23T20:21:33.898Z,15.10
2022-09-23T20:24:01.807Z,15.10
2022-09-23T20:26:47.037Z,15.10
2022-09-23T20:29:15.358Z,15.00
2022-09-23T20:31:42.307Z,15.10
2022-09-23T20:34:10.481Z,15.00
2022-09-23T20:36:39.249Z,15.00
2022-09-23T20:39:06.293Z,15.00
2022-09-23T20:41:37.637Z,14.90
2022-09-23T20:44:09.508Z,14.90
2022-09-23T20:46:36.581Z,14.90
2022-09-23T20:49:04.710Z,14.80
2022-09-23T20:51:34.872Z,14.80
2022-09-23T20:54:02.005Z,14.70
2022-09-23T20:56:29.280Z,14.70
2022-09-23T20:59:01.017Z,14.70
2022-09-23T21:01:28.191Z,14.70
2022-09-23T21:03:55.995Z,14.70
2022-09-23T21:06:26.257Z,14.70
2022-09-23T21:08:54.665Z,14.70
2022-09-23T21:11:22.537Z,14.60
2022-09-23T21:13:51.754Z,14.70
2022-09-23T21:16:22.406Z,14.60
2022-09-23T21:18:51.327Z,14.60
2022-09-23T21:21:19.808Z,14.60
2022-09-23T21:23:47.567Z,14.70
2022-09-23T21:26:19.383Z,14.60
2022-09-23T21:28:57.835Z,14.60
2022-09-23T21:31:34.371Z,14.60
2022-09-23T21:34:05.075Z,14.50
2022-09-23T21:36:37.070Z,14.50
2022-09-23T21:39:05.985Z,14.50
2022-09-23T21:41:33.498Z,14.50
2022-09-23T21:44:04.635Z,14.50
2022-09-23T21:46:35.517Z,14.50
2022-09-23T21:49:03.663Z,14.40
2022-09-23T21:51:40.802Z,14.40
2022-09-23T21:54:17.420Z,14.40
2022-09-23T21:56:44.818Z,14.30
2022-09-23T21:59:11.873Z,14.30
2022-09-23T22:01:44.534Z,14.30
2022-09-23T22:04:18.366Z,14.30
2022-09-23T22:06:46.327Z,14.30
2022-09-23T22:09:17.720Z,14.30
2022-09-23T22:12:04.023Z,14.20
2022-09-23T22:14:31.402Z,14.30
2022-09-23T22:17:02.258Z,14.30
2022-09-23T22:19:35.476Z,14.30
2022-09-23T22:22:08.567Z,14.30
2022-09-23T22:24:35.388Z,14.30
2022-09-23T22:27:02.276Z,14.20
2022-09-23T22:29:58.185Z,14.10
2022-09-23T22:32:55.271Z,14.10
2022-09-23T22:35:22.342Z,14.20
2022-09-23T22:37:49.193Z,14.20
2022-09-23T22:40:16.316Z,14.10
2022-09-23T22:42:43.972Z,14.10
2022-09-23T22:45:12.465Z,14.10
2022-09-23T22:47:42.042Z,14.10
2022-09-23T22:50:09.869Z,14.00
2022-09-23T22:52:37.910Z,14.00
2022-09-23T22:55:07.935Z,14.00
2022-09-23T22:57:35.260Z,14.00
2022-09-23T23:00:04.958Z,14.00
2022-09-23T23:02:32.076Z,13.90
2022-09-23T23:05:00.495Z,13.90
2022-09-23T23:07:27.333Z,13.90
2022-09-23T23:09:54.313Z,13.90
2022-09-23T23:12:21.644Z,13.80
2022-09-23T23:14:49.655Z,13.80
2022-09-23T23:17:17.557Z,13.80
2022-09-23T23:19:45.114Z,13.80
2022-09-23T23:22:12.063Z,13.80
2022-09-23T23:24:38.958Z,13.80
2022-09-23T23:27:05.862Z,13.80
2022-09-23T23:29:32.698Z,13.70
2022-09-23T23:31:59.704Z,13.70
2022-09-23T23:34:26.552Z,13.70
2022-09-23T23:36:56.567Z,13.70
2022-09-23T23:39:24.993Z,13.70
2022-09-23T23:41:57.241Z,13.60
2022-09-23T23:44:26.360Z,13.70
2022-09-23T23:46:54.478Z,13.60
2022-09-23T23:49:22.128Z,13.70
2022-09-23T23:51:49.376Z,13.60
2022-09-23T23:54:16.544Z,13.60
2022-09-23T23:56:43.647Z,13.60
2022-09-23T23:59:11.290Z,13.60
